createdAt,value
2022-12-08T00:01:23.165Z,100633.94
2022-12-08T00:03:50.496Z,100632.28
2022-12-08T00:06:43.146Z,100632.44
2022-12-08T00:09:39.180Z,100635.50
2022-12-08T00:12:17.502Z,100631.69
2022-12-08T00:14:46.757Z,100628.78
2022-12-08T00:17:15.467Z,100633.88
2022-12-08T00:19:42.895Z,100621.03
2022-12-08T00:22:11.323Z,100616.50
2022-12-08T00:24:39.953Z,100608.84
2022-12-08T00:27:07.888Z,100610.44
2022-12-08T00:29:34.294Z,100611.56
2022-12-08T00:32:00.784Z,100610.13
2022-12-08T00:34:27.228Z,100615.03
2022-12-08T00:36:53.644Z,100607.06
2022-12-08T00:39:20.199Z,100611.25
2022-12-08T00:42:05.097Z,100611.06
2022-12-08T00:44:31.559Z,100604.72
2022-12-08T00:46:58.004Z,100604.00
2022-12-08T00:49:24.623Z,100612.72
2022-12-08T00:51:51.077Z,100609.78
2022-12-08T00:54:18.286Z,100608.31
2022-12-08T00:56:44.807Z,100611.81
2022-12-08T00:59:11.225Z,100619.25
2022-12-08T01:01:37.691Z,100622.31
2022-12-08T01:04:10.426Z,100620.50
2022-12-08T01:06:36.945Z,100618.63
2022-12-08T01:09:06.133Z,100620.47
2022-12-08T01:11:33.156Z,100625.34
2022-12-08T01:13:59.619Z,100620.81
2022-12-08T01:16:28.572Z,100618.09
2022-12-08T01:18:56.407Z,100627.19
2022-12-08T01:21:23.283Z,100625.97
2022-12-08T01:23:49.748Z,100625.97
2022-12-08T01:26:17.741Z,100629.94
2022-12-08T01:28:45.184Z,100631.75
2022-12-08T01:31:20.327Z,100622.66
2022-12-08T01:33:47.478Z,100626.09
2022-12-08T01:36:25.353Z,100627.19
2022-12-08T01:38:52.645Z,100627.19
2022-12-08T01:41:22.695Z,100629.22
2022-12-08T01:44:08.738Z,100625.25
2022-12-08T01:46:38.032Z,100624.13
2022-12-08T01:49:35.564Z,100621.22
2022-12-08T01:52:11.011Z,100615.59
2022-12-08T01:55:05.596Z,100620.72
2022-12-08T01:57:39.956Z,100609.97
2022-12-08T02:00:11.372Z,100604.53
2022-12-08T02:02:57.287Z,100593.13
2022-12-08T02:05:27.668Z,100593.81
2022-12-08T02:07:56.091Z,100598.19
2022-12-08T02:10:24.165Z,100592.03
2022-12-08T02:12:53.909Z,100583.50
2022-12-08T02:15:28.716Z,100580.78
2022-12-08T02:18:32.542Z,100581.69
2022-12-08T02:21:29.472Z,100577.81
2022-12-08T02:24:20.845Z,100567.63
2022-12-08T02:27:18.522Z,100571.06
2022-12-08T02:30:12.792Z,100567.94
2022-12-08T02:32:45.148Z,100567.03
2022-12-08T02:35:17.151Z,100569.22
2022-12-08T02:38:01.420Z,100571.19
2022-12-08T02:40:49.588Z,100568.66
2022-12-08T02:43:32.146Z,100565.19
2022-12-08T02:46:08.072Z,100564.22
2022-12-08T02:48:35.096Z,100566.44
2022-12-08T02:51:01.619Z,100560.13
2022-12-08T02:53:33.330Z,100559.03
2022-12-08T02:56:07.840Z,100556.13
2022-12-08T02:58:42.802Z,100562.47
2022-12-08T03:01:18.431Z,100562.13
2022-12-08T03:04:13.370Z,100565.59
2022-12-08T03:06:55.807Z,100567.03
2022-12-08T03:09:42.042Z,100566.81
2022-12-08T03:12:08.392Z,100569.38
2022-12-08T03:14:36.371Z,100570.97
2022-12-08T03:17:04.297Z,100567.34
2022-12-08T03:19:35.579Z,100566.09
2022-12-08T03:22:04.890Z,100562.06
2022-12-08T03:24:37.073Z,100564.03
2022-12-08T03:27:20.021Z,100554.75
2022-12-08T03:29:52.042Z,100561.69
2022-12-08T03:32:47.456Z,100561.03
2022-12-08T03:35:20.096Z,100553.72
2022-12-08T03:37:46.584Z,100547.88
2022-12-08T03:40:17.091Z,100550.06
2022-12-08T03:42:43.504Z,100542.41
2022-12-08T03:45:10.372Z,100536.75
2022-12-08T03:47:36.952Z,100538.06
2022-12-08T03:50:04.343Z,100534.44
2022-12-08T03:52:31.051Z,100534.44
2022-12-08T03:54:57.479Z,100522.13
2022-12-08T03:57:23.902Z,100531.72
2022-12-08T03:59:50.293Z,100531.53
2022-12-08T04:02:16.820Z,100527.09
2022-12-08T04:04:44.185Z,100527.09
2022-12-08T04:07:10.592Z,100530.63
2022-12-08T04:09:37.026Z,100529.94
2022-12-08T04:12:03.531Z,100529.75
2022-12-08T04:14:30.000Z,100526.78
2022-12-08T04:16:56.408Z,100521.69
2022-12-08T04:19:22.799Z,100523.09
2022-12-08T04:21:49.202Z,100518.00
2022-12-08T04:24:15.674Z,100514.56
2022-12-08T04:26:42.107Z,100523.28
2022-12-08T04:29:08.510Z,100528.59
2022-12-08T04:31:34.981Z,100523.38
2022-12-08T04:34:01.452Z,100514.09
2022-12-08T04:36:27.898Z,100520.22
2022-12-08T04:38:54.318Z,100522.91
2022-12-08T04:41:20.866Z,100521.94
2022-12-08T04:43:47.287Z,100515.03
2022-12-08T04:46:13.891Z,100515.31
2022-12-08T04:48:41.470Z,100511.84
2022-12-08T04:51:15.192Z,100510.72
2022-12-08T04:53:46.317Z,100511.13
2022-12-08T04:56:16.822Z,100511.84
2022-12-08T04:58:43.960Z,100519.66
2022-12-08T05:01:10.895Z,100518.75
2022-12-08T05:03:37.435Z,100514.91
2022-12-08T05:06:04.451Z,100513.09
2022-12-08T05:08:32.041Z,100511.81
2022-12-08T05:11:04.322Z,100512.47
2022-12-08T05:13:30.865Z,100511.06
2022-12-08T05:16:09.665Z,100512.59
2022-12-08T05:18:37.140Z,100512.97
2022-12-08T05:21:04.620Z,100514.56
2022-12-08T05:23:31.533Z,100518.75
2022-12-08T05:25:58.088Z,100511.19
2022-12-08T05:28:42.307Z,100519.56
2022-12-08T05:31:10.697Z,100510.66
2022-12-08T05:33:37.199Z,100511.19
2022-12-08T05:36:03.703Z,100514.09
2022-12-08T05:38:30.204Z,100513.72
2022-12-08T05:40:56.774Z,100512.41
2022-12-08T05:43:23.217Z,100511.75
2022-12-08T05:45:50.012Z,100509.00
2022-12-08T05:48:16.596Z,100509.34
2022-12-08T05:50:49.871Z,100508.63
2022-12-08T05:53:18.073Z,100510.09
2022-12-08T05:55:44.823Z,100511.56
2022-12-08T05:58:19.544Z,100517.03
2022-12-08T06:00:46.822Z,100504.69
2022-12-08T06:03:15.064Z,100510.47
2022-12-08T06:05:43.167Z,100510.81
2022-12-08T06:08:10.121Z,100512.69
2022-12-08T06:10:39.048Z,100509.91
2022-12-08T06:13:05.496Z,100509.72
2022-12-08T06:15:34.599Z,100519.00
2022-12-08T06:18:01.062Z,100518.28
2022-12-08T06:20:27.473Z,100514.44
2022-12-08T06:22:57.369Z,100509.72
2022-12-08T06:25:24.696Z,100509.00
2022-12-08T06:27:51.156Z,100523.50
2022-12-08T06:30:18.189Z,100524.41
2022-12-08T06:32:44.680Z,100522.75
2022-12-08T06:35:11.083Z,100523.50
2022-12-08T06:37:37.483Z,100518.44
2022-12-08T06:40:04.574Z,100518.81
2022-12-08T06:42:49.388Z,100520.09
2022-12-08T06:45:17.599Z,100521.53
2022-12-08T06:47:44.222Z,100512.28
2022-12-08T06:50:11.837Z,100519.38
2022-12-08T06:52:46.762Z,100521.72
2022-12-08T06:55:35.502Z,100524.84
2022-12-08T06:58:02.459Z,100516.13
2022-12-08T07:00:30.048Z,100520.88
2022-12-08T07:02:56.569Z,100522.69
2022-12-08T07:05:23.103Z,100523.94
2022-12-08T07:07:49.595Z,100520.66
2022-12-08T07:10:16.171Z,100520.31
2022-12-08T07:12:42.610Z,100527.75
2022-12-08T07:15:09.635Z,100522.69
2022-12-08T07:17:36.053Z,100527.59
2022-12-08T07:20:02.730Z,100521.22
2022-12-08T07:22:29.384Z,100525.03
2022-12-08T07:24:55.853Z,100526.13
2022-12-08T07:27:22.256Z,100522.88
2022-12-08T07:29:49.078Z,100519.56
2022-12-08T07:32:15.532Z,100526.81
2022-12-08T07:34:41.923Z,100517.53
2022-12-08T07:37:08.354Z,100522.44
2022-12-08T07:39:34.761Z,100527.53
2022-12-08T07:42:01.150Z,100518.53
2022-12-08T07:44:27.559Z,100522.78
2022-12-08T07:46:53.965Z,100526.22
2022-12-08T07:49:20.624Z,100523.81
2022-12-08T07:51:47.023Z,100529.97
2022-12-08T07:54:13.560Z,100527.19
2022-12-08T07:56:40.004Z,100526.06
2022-12-08T07:59:06.524Z,100525.69
2022-12-08T08:01:35.127Z,100528.94
2022-12-08T08:04:05.023Z,100534.59
2022-12-08T08:06:36.896Z,100526.06
2022-12-08T08:09:04.254Z,100525.97
2022-12-08T08:11:30.756Z,100531.97
2022-12-08T08:13:57.496Z,100520.66
2022-12-08T08:16:24.041Z,100523.00
2022-12-08T08:18:51.058Z,100521.59
2022-12-08T08:24:05.432Z,100522.44
2022-12-08T08:26:31.868Z,100521.34
2022-12-08T08:28:58.277Z,100530.06
2022-12-08T08:31:26.965Z,100536.06
2022-12-08T08:33:53.992Z,100529.13
2022-12-08T08:36:21.984Z,100531.53
2022-12-08T08:38:48.474Z,100531.16
2022-12-08T08:41:14.936Z,100522.06
2022-12-08T08:43:41.457Z,100529.56
2022-12-08T08:46:08.970Z,100523.50
2022-12-08T08:48:36.174Z,100526.34
2022-12-08T08:51:13.926Z,100527.97
2022-12-08T08:53:41.586Z,100529.97
2022-12-08T08:56:09.968Z,100522.84
2022-12-08T08:58:36.685Z,100527.69
2022-12-08T09:01:03.285Z,100534.94
2022-12-08T09:03:29.699Z,100527.09
2022-12-08T09:05:56.660Z,100531.63
2022-12-08T09:08:23.783Z,100540.16
2022-12-08T09:10:50.389Z,100543.44
2022-12-08T09:13:16.802Z,100537.03
2022-12-08T09:15:43.288Z,100541.19
2022-12-08T09:18:09.891Z,100540.22
2022-12-08T09:20:36.650Z,100543.19
2022-12-08T09:23:03.494Z,100532.44
2022-12-08T09:25:30.144Z,100529.19
2022-12-08T09:27:56.744Z,100534.78
2022-12-08T09:30:23.531Z,100541.00
2022-12-08T09:32:50.406Z,100541.00
2022-12-08T09:35:17.093Z,100538.66
2022-12-08T09:37:43.624Z,100538.50
2022-12-08T09:40:15.428Z,100532.09
2022-12-08T09:42:51.558Z,100523.78
2022-12-08T09:45:19.335Z,100519.75
2022-12-08T09:47:59.525Z,100519.25
2022-12-08T09:50:43.354Z,100516.72
2022-12-08T09:53:16.978Z,100510.81
2022-12-08T09:56:04.476Z,100512.88
2022-12-08T09:59:01.935Z,100511.06
2022-12-08T10:01:31.606Z,100508.91
2022-12-08T10:03:58.832Z,100504.56
2022-12-08T10:07:04.859Z,100497.91
2022-12-08T10:10:13.387Z,100497.56
2022-12-08T10:12:54.109Z,100507.78
2022-12-08T10:15:27.139Z,100508.50
2022-12-08T10:17:55.040Z,100507.78
2022-12-08T10:20:26.778Z,100498.88
2022-12-08T10:23:07.213Z,100494.53
2022-12-08T10:25:39.025Z,100492.13
2022-12-08T10:28:05.766Z,100500.03
2022-12-08T10:30:32.472Z,100495.44
2022-12-08T10:33:00.255Z,100491.97
2022-12-08T10:35:46.759Z,100494.03
2022-12-08T10:38:37.424Z,100488.94
2022-12-08T10:41:09.834Z,100490.06
2022-12-08T10:43:44.868Z,100484.84
2022-12-08T10:46:22.496Z,100486.28
2022-12-08T10:48:49.110Z,100485.09
2022-12-08T10:51:39.135Z,100482.44
2022-12-08T10:54:24.613Z,100488.19
2022-12-08T10:56:56.208Z,100482.81
2022-12-08T10:59:25.659Z,100477.88
2022-12-08T11:01:54.940Z,100477.41
2022-12-08T11:04:40.147Z,100471.13
2022-12-08T11:07:11.582Z,100479.91
2022-12-08T11:09:48.726Z,100462.22
2022-12-08T11:12:20.217Z,100452.34
2022-12-08T11:14:55.872Z,100459.25
2022-12-08T11:17:22.259Z,100454.16
2022-12-08T11:20:09.061Z,100448.38
2022-12-08T11:22:43.980Z,100452.66
2022-12-08T11:25:11.873Z,100448.97
2022-12-08T11:27:43.395Z,100451.84
2022-12-08T11:30:15.581Z,100461.28
2022-12-08T11:32:44.856Z,100453.63
2022-12-08T11:35:18.573Z,100457.34
2022-12-08T11:37:45.108Z,100458.31
2022-12-08T11:40:31.450Z,100448.41
2022-12-08T11:43:34.592Z,100444.53
2022-12-08T11:46:04.641Z,100440.38
2022-12-08T11:48:46.321Z,100437.22
2022-12-08T11:51:28.677Z,100435.09
2022-12-08T11:54:22.450Z,100431.97
2022-12-08T11:56:52.821Z,100424.41
2022-12-08T11:59:25.004Z,100424.69
2022-12-08T12:01:51.704Z,100422.16
2022-12-08T12:04:42.651Z,100422.03
2022-12-08T12:07:33.453Z,100413.00
2022-12-08T12:10:37.718Z,100407.94
2022-12-08T12:13:47.747Z,100409.72
2022-12-08T12:16:29.377Z,100406.28
2022-12-08T12:19:04.777Z,100403.44
2022-12-08T12:21:34.343Z,100393.50
2022-12-08T12:24:08.815Z,100394.09
2022-12-08T12:26:38.085Z,100386.59
2022-12-08T12:29:17.894Z,100388.72
2022-12-08T12:31:51.930Z,100392.03
2022-12-08T12:34:25.782Z,100392.03
2022-12-08T12:37:23.239Z,100386.94
2022-12-08T12:39:52.680Z,100384.22
2022-12-08T12:42:44.052Z,100380.63
2022-12-08T12:45:33.067Z,100382.56
2022-12-08T12:47:59.877Z,100382.41
2022-12-08T12:50:49.863Z,100380.00
2022-12-08T12:53:16.256Z,100382.41
2022-12-08T12:55:45.991Z,100386.03
2022-12-08T12:58:27.479Z,100383.28
2022-12-08T13:01:12.727Z,100371.00
2022-12-08T13:03:42.268Z,100367.69
2022-12-08T13:06:14.675Z,100357.94
2022-12-08T13:08:51.037Z,100350.94
2022-12-08T13:11:17.660Z,100355.59
2022-12-08T13:14:03.986Z,100342.22
2022-12-08T13:16:37.519Z,100354.69
2022-12-08T13:19:11.939Z,100351.13
2022-12-08T13:21:39.473Z,100353.97
2022-12-08T13:24:17.937Z,100338.03
2022-12-08T13:27:03.657Z,100335.03
2022-12-08T13:29:40.381Z,100328.13
2022-12-08T13:32:09.721Z,100326.75
2022-12-08T13:35:00.180Z,100327.50
2022-12-08T13:37:31.630Z,100331.13
2022-12-08T13:40:02.370Z,100323.03
2022-12-08T13:42:49.929Z,100320.31
2022-12-08T13:45:59.048Z,100324.50
2022-12-08T13:49:31.985Z,100327.81
2022-12-08T13:57:37.533Z,100313.38
2022-12-08T14:00:15.226Z,100314.59
2022-12-08T14:02:47.792Z,100317.28
2022-12-08T14:05:18.524Z,100315.34
2022-12-08T14:07:49.854Z,100319.09
2022-12-08T14:10:29.322Z,100314.59
2022-12-08T14:13:00.432Z,100317.91
2022-12-08T14:15:30.225Z,100319.09
2022-12-08T14:18:00.780Z,100325.88
2022-12-08T14:20:30.355Z,100325.09
2022-12-08T14:22:59.343Z,100321.94
2022-12-08T14:25:28.009Z,100317.28
2022-12-08T14:28:03.018Z,100315.78
2022-12-08T14:30:32.578Z,100322.72
2022-12-08T14:33:00.945Z,100332.31
2022-12-08T14:35:30.064Z,100332.94
2022-12-08T14:38:01.887Z,100332.94
2022-12-08T14:40:35.961Z,100326.94
2022-12-08T14:43:08.663Z,100330.53
2022-12-08T14:45:45.965Z,100327.66
2022-12-08T14:48:22.921Z,100333.53
2022-12-08T14:50:55.521Z,100340.44
2022-12-08T14:53:22.608Z,100336.81
2022-12-08T14:55:50.263Z,100330.69
2022-12-08T14:58:27.607Z,100331.56
2022-12-08T15:00:58.842Z,100327.97
2022-12-08T15:03:28.927Z,100326.75
2022-12-08T15:06:01.542Z,100317.59
2022-12-08T15:08:28.068Z,100308.56
2022-12-08T15:11:26.226Z,100303.25
2022-12-08T15:13:54.351Z,100306.09
2022-12-08T15:16:40.617Z,100315.09
2022-12-08T15:19:28.452Z,100327.69
2022-12-08T15:21:57.898Z,100334.00
2022-12-08T15:24:28.324Z,100346.88
2022-12-08T15:26:55.036Z,100343.69
2022-12-08T15:29:27.046Z,100343.22
2022-12-08T15:31:56.733Z,100342.34
2022-12-08T15:34:23.510Z,100348.59
2022-12-08T15:36:52.139Z,100344.84
2022-12-08T15:39:44.857Z,100346.16
2022-12-08T15:42:15.443Z,100346.16
2022-12-08T15:44:42.528Z,100347.81
2022-12-08T15:47:20.298Z,100335.81
2022-12-08T15:49:48.076Z,100334.81
2022-12-08T15:52:17.039Z,100338.25
2022-12-08T15:54:43.687Z,100326.63
2022-12-08T15:57:22.248Z,100332.22
2022-12-08T15:59:56.515Z,100338.84
2022-12-08T16:02:25.055Z,100332.69
2022-12-08T16:07:39.394Z,100342.25
2022-12-08T16:10:07.817Z,100340.44
2022-12-08T16:15:59.256Z,100334.16
2022-12-08T16:18:30.248Z,100335.81
2022-12-08T16:23:44.906Z,100335.34
2022-12-08T16:26:39.403Z,100330.72
2022-12-08T16:29:05.577Z,100324.59
2022-12-08T16:31:32.649Z,100326.56
2022-12-08T16:33:59.322Z,100322.22
2022-12-08T16:36:25.767Z,100333.63
2022-12-08T16:38:52.219Z,100338.38
2022-12-08T16:41:37.387Z,100329.53
2022-12-08T16:44:05.407Z,100323.66
2022-12-08T16:46:32.227Z,100320.09
2022-12-08T16:48:59.004Z,100312.59
2022-12-08T16:51:27.289Z,100324.47
2022-12-08T16:53:58.281Z,100325.19
2022-12-08T16:56:32.308Z,100321.00
2022-12-08T16:58:59.837Z,100321.91
2022-12-08T17:01:26.384Z,100341.28
2022-12-08T17:04:22.642Z,100334.75
2022-12-08T17:06:39.550Z,100328.63
2022-12-08T17:09:06.102Z,100331.47
2022-12-08T17:11:36.278Z,100334.34
2022-12-08T17:14:09.125Z,100335.09
2022-12-08T17:16:35.746Z,100340.34
2022-12-08T17:19:02.456Z,100337.97
2022-12-08T17:21:28.941Z,100340.50
2022-12-08T17:23:55.460Z,100334.69
2022-12-08T17:26:21.843Z,100331.97
2022-12-08T17:29:03.509Z,100320.22
2022-12-08T17:31:31.454Z,100332.34
2022-12-08T17:34:09.524Z,100330.53
2022-12-08T17:36:36.076Z,100327.22
2022-12-08T17:39:03.244Z,100330.25
2022-12-08T17:41:30.037Z,100328.94
2022-12-08T17:43:56.916Z,100328.47
2022-12-08T17:46:23.399Z,100333.41
2022-12-08T17:48:49.873Z,100338.84
2022-12-08T17:51:16.477Z,100335.34
2022-12-08T17:53:43.373Z,100339.13
2022-12-08T17:56:19.404Z,100333.28
2022-12-08T17:58:49.840Z,100328.19
2022-12-08T18:01:19.359Z,100334.34
2022-12-08T18:03:45.865Z,100342.00
2022-12-08T18:06:12.625Z,100333.13
2022-12-08T18:08:39.858Z,100332.97
2022-12-08T18:11:12.651Z,100334.03
2022-12-08T18:13:39.200Z,100335.69
2022-12-08T18:16:05.837Z,100333.88
2022-12-08T18:18:32.298Z,100342.28
2022-12-08T18:20:58.718Z,100346.19
2022-12-08T18:23:25.184Z,100336.00
2022-12-08T18:25:51.619Z,100342.34
2022-12-08T18:28:18.084Z,100334.69
2022-12-08T18:30:44.561Z,100338.72
2022-12-08T18:33:11.086Z,100333.44
2022-12-08T18:35:39.484Z,100346.78
2022-12-08T18:38:06.090Z,100341.22
2022-12-08T18:40:32.512Z,100330.59
2022-12-08T18:42:59.256Z,100342.41
2022-12-08T18:45:25.685Z,100342.41
2022-12-08T18:47:52.281Z,100342.88
2022-12-08T18:50:18.950Z,100336.84
2022-12-08T18:52:46.371Z,100340.59
2022-12-08T18:55:13.496Z,100341.06
2022-12-08T18:57:43.751Z,100348.88
2022-12-08T19:00:13.538Z,100347.06
2022-12-08T19:02:40.909Z,100341.66
2022-12-08T19:05:09.581Z,100334.16
2022-12-08T19:07:36.385Z,100333.09
2022-12-08T19:10:04.094Z,100333.81
2022-12-08T19:12:31.145Z,100338.38
2022-12-08T19:14:57.957Z,100325.75
2022-12-08T19:17:25.775Z,100307.75
2022-12-08T19:19:52.255Z,100305.16
2022-12-08T19:22:18.666Z,100314.19
2022-12-08T19:24:45.075Z,100317.78
2022-12-08T19:27:11.527Z,100316.13
2022-12-08T19:29:37.941Z,100323.06
2022-12-08T19:32:05.225Z,100322.13
2022-12-08T19:34:31.804Z,100323.94
2022-12-08T19:36:58.328Z,100332.34
2022-12-08T19:39:43.336Z,100322.72
2022-12-08T19:42:37.266Z,100327.22
2022-12-08T19:45:10.068Z,100335.94
2022-12-08T19:47:36.630Z,100324.09
2022-12-08T19:50:22.568Z,100329.47
2022-12-08T19:52:49.068Z,100330.38
2022-12-08T19:55:15.769Z,100325.44
2022-12-08T19:57:42.254Z,100326.16
2022-12-08T20:00:10.767Z,100333.53
2022-12-08T20:02:37.530Z,100332.63
2022-12-08T20:05:06.095Z,100326.63
2022-12-08T20:07:32.896Z,100327.81
2022-12-08T20:09:59.308Z,100322.13
2022-12-08T20:12:25.860Z,100319.44
2022-12-08T20:14:52.403Z,100321.53
2022-12-08T20:17:19.406Z,100322.91
2022-12-08T20:19:45.936Z,100312.84
2022-12-08T20:22:12.380Z,100317.63
2022-12-08T20:24:38.813Z,100320.94
2022-12-08T20:27:05.288Z,100328.41
2022-12-08T20:29:31.832Z,100323.63
2022-12-08T20:31:58.502Z,100325.75
2022-12-08T20:34:24.996Z,100323.66
2022-12-08T20:36:51.643Z,100320.66
2022-12-08T20:39:19.083Z,100314.34
2022-12-08T20:41:46.667Z,100315.41
2022-12-08T20:44:13.259Z,100311.50
2022-12-08T20:46:41.854Z,100313.75
2022-12-08T20:49:11.649Z,100305.75
2022-12-08T20:51:38.118Z,100305.47
2022-12-08T20:54:04.722Z,100308.00
2022-12-08T20:56:32.518Z,100305.88
2022-12-08T20:58:59.239Z,100309.19
2022-12-08T21:01:26.043Z,100304.41
2022-12-08T21:03:52.904Z,100296.00
2022-12-08T21:06:24.537Z,100302.28
2022-12-08T21:08:51.218Z,100308.84
2022-12-08T21:11:17.859Z,100297.63
2022-12-08T21:13:45.150Z,100300.19
2022-12-08T21:16:14.433Z,100304.94
2022-12-08T21:18:41.888Z,100308.56
2022-12-08T21:21:12.577Z,100310.97
2022-12-08T21:23:39.647Z,100317.75
2022-12-08T21:26:18.178Z,100322.69
2022-12-08T21:28:45.287Z,100321.06
2022-12-08T21:31:15.559Z,100313.53
2022-12-08T21:33:42.388Z,100320.75
2022-12-08T21:36:12.810Z,100314.34
2022-12-08T21:38:39.834Z,100313.41
2022-12-08T21:41:09.449Z,100304.13
2022-12-08T21:43:36.344Z,100310.88
2022-12-08T21:46:03.395Z,100317.78
2022-12-08T21:48:30.014Z,100319.91
2022-12-08T21:50:56.924Z,100324.25
2022-12-08T21:53:26.445Z,100323.63
2022-12-08T21:55:53.237Z,100326.94
2022-12-08T21:58:19.772Z,100328.72
2022-12-08T22:00:46.541Z,100334.59
2022-12-08T22:03:14.827Z,100339.84
2022-12-08T22:05:42.474Z,100340.91
2022-12-08T22:08:09.262Z,100330.53
2022-12-08T22:10:35.976Z,100332.34
2022-12-08T22:13:02.572Z,100329.06
2022-12-08T22:15:29.776Z,100324.09
2022-12-08T22:17:56.867Z,100319.75
2022-12-08T22:20:23.749Z,100324.25
2022-12-08T22:22:50.395Z,100335.06
2022-12-08T22:25:16.917Z,100332.34
2022-12-08T22:27:43.573Z,100330.72
2022-12-08T22:30:11.562Z,100331.44
2022-12-08T22:32:38.544Z,100329.19
2022-12-08T22:35:05.585Z,100334.28
2022-12-08T22:37:32.292Z,100338.63
2022-12-08T22:39:58.821Z,100331.72
2022-12-08T22:42:25.411Z,100337.13
2022-12-08T22:44:51.791Z,100332.19
2022-12-08T22:47:18.316Z,100334.16
2022-12-08T22:49:44.867Z,100335.91
2022-12-08T22:52:11.301Z,100341.47
2022-12-08T22:54:37.929Z,100345.03
2022-12-08T22:57:04.442Z,100340.44
2022-12-08T22:59:33.280Z,100339.69
2022-12-08T23:01:59.854Z,100345.84
2022-12-08T23:04:26.705Z,100344.19
2022-12-08T23:06:53.166Z,100350.19
2022-12-08T23:09:19.796Z,100347.34
2022-12-08T23:11:46.299Z,100342.41
2022-12-08T23:14:12.936Z,100344.03
2022-12-08T23:16:39.704Z,100336.91
2022-12-08T23:19:06.755Z,100337.03
2022-12-08T23:21:33.222Z,100330.72
2022-12-08T23:24:01.297Z,100326.53
2022-12-08T23:26:29.797Z,100322.06
2022-12-08T23:28:57.328Z,100327.78
2022-12-08T23:31:24.868Z,100324.50
2022-12-08T23:33:52.110Z,100320.88
2022-12-08T23:36:19.938Z,100316.50
2022-12-08T23:38:47.249Z,100318.16
2022-12-08T23:41:15.590Z,100309.31
2022-12-08T23:43:48.021Z,100300.38
2022-12-08T23:46:16.293Z,100293.91
2022-12-08T23:48:42.836Z,100301.38
2022-12-08T23:51:10.143Z,100293.50
2022-12-08T23:53:36.798Z,100298.59
2022-12-08T23:56:09.270Z,100292.00
2022-12-08T23:58:36.642Z,100290.19
